• Join FlightAware (Why Join?)
  • Login
  • US Flag 
02:46PM EDT


 

Airport Tracker/Info


-or-


 

Live Flight TrackerFlight Track Log ✈ CRQ590 ✈ 22-Sep-2013 ✈ CYUY - CYVO

Flight Track Log - Related Links

Times and Time Zones

All times are in EDT time to prevent confusion due to time zone crossing. See the CRQ590 flight status page for this flight to view local times or setup timezone preferences in your user account.

Time Position Orientation Groundspeed Altitude Reporting Facility
EDT Latitude Longitude Course Direction KTS MPH feet Rate Location/Type
08:47AM 48.1235 -78.2574 102° East  Level Estimated
08:48AM 48.1095 -78.1613 102° East  Level Estimated
08:48AM 47.9167 -78.5500 103° East 200 230 9,900  Level Montreal Center
08:49AM 48.0953 -78.0652 102° East  Level Estimated
08:49AM 47.8833 -78.5000 135° Southeast 210 242 10,800  Level Montreal Center
08:50AM 48.0811 -77.9691 102° East  Level Estimated
08:51AM 48.0668 -77.8731 103° East  Level Estimated
08:51AM 47.8000 -78.3667 133° Southeast 220 253 12,200  Level Montreal Center
08:52AM 48.0533 -77.7828 103° East  Level Estimated
08:52AM 47.7500 -78.2833 132° Southeast 220 253 13,000  Level Montreal Center
08:53AM 47.7000 -78.2167 138° Southeast 240 276 13,100  Climbing Montreal Center
08:54AM 47.6500 -78.1333 132° Southeast 250 288 13,100 -60 Level Montreal Center
08:55AM 47.6000 -78.0667 138° Southeast 260 299 13,000 -60 Descending Montreal Center
08:57AM 47.5000 -77.9000 132° Southeast 260 299 13,000  Level Montreal Center
08:58AM 47.4500 -77.8000 126° Southeast 260 299 13,100  Climbing Montreal Center
08:59AM 47.4167 -77.7333 126° Southeast 260 299 13,000 -60 Descending Montreal Center
09:00AM 47.3667 -77.6500 132° Southeast 270 311 13,000  Level Montreal Center
09:02AM 47.2833 -77.4833 126° Southeast 270 311 13,100  Climbing Montreal Center
09:03AM 47.2333 -77.4000 131° Southeast 260 299 13,100 -120 Level Montreal Center
09:04AM 47.1833 -77.3333 138° Southeast 260 299 12,900 -60 Descending Montreal Center
09:05AM 47.1333 -77.2333 126° Southeast 260 299 13,000  Climbing Montreal Center
09:06AM 47.1000 -77.1500 120° Southeast 250 288 13,000  Level Montreal Center
09:07AM 47.0500 -77.0833 138° Southeast 260 299 13,000  Level Montreal Center
09:08AM 47.0000 -77.0000 131° Southeast 250 288 13,000  Level Montreal Center
09:09AM 46.9500 -76.9000 126° Southeast 260 299 13,000  Level Montreal Center
09:10AM 46.9000 -76.8333 138° Southeast 260 299 13,000  Level Montreal Center
09:11AM 46.8500 -76.7500 131° Southeast 250 288 13,000 60 Level Montreal Center
09:12AM 46.8167 -76.6833 126° Southeast 260 299 13,200 120 Climbing Montreal Center
09:13AM 46.7667 -76.6000 131° Southeast 260 299 13,300  Climbing Montreal Center
09:14AM 46.7333 -76.4833 113° Southeast 260 299 13,200  Descending Montreal Center
09:15AM 46.7000 -76.4000 120° Southeast 260 299 13,300  Climbing Montreal Center
09:16AM 46.6667 -76.3167 120° Southeast 260 299 13,200 -60 Descending Montreal Center
09:17AM 46.6333 -76.2167 116° Southeast 260 299 13,200  Level Montreal Center
09:18AM 46.6000 -76.1333 120° Southeast 260 299 13,300  Climbing Montreal Center
09:19AM 46.5667 -76.0333 116° Southeast 260 299 13,200 -60 Descending Montreal Center
09:20AM 46.5167 -75.9500 131° Southeast 260 299 13,200  Level Montreal Center
09:21AM 46.4833 -75.8500 116° Southeast 260 299 13,200  Level Montreal Center
09:22AM 46.4500 -75.7667 120° Southeast 260 299 13,300  Climbing Montreal Center
09:23AM 46.4167 -75.6833 120° Southeast 260 299 13,200 -60 Descending Montreal Center
09:24AM 46.3833 -75.5833 116° Southeast 260 299 13,200  Level Montreal Center
09:25AM 46.3500 -75.5000 120° Southeast 260 299 13,200  Level Montreal Center
09:26AM 46.3000 -75.4167 131° Southeast 260 299 13,200 -60 Level Montreal Center
09:27AM 46.2667 -75.3167 116° Southeast 260 299 13,100 -60 Descending Montreal Center
09:28AM 46.2333 -75.2167 116° Southeast 250 288 13,100  Level Montreal Center
09:29AM 46.2000 -75.1500 126° Southeast 250 288 13,100  Level Montreal Center
09:30AM 46.1667 -75.0500 116° Southeast 250 288 13,100  Level Montreal Center
09:31AM 46.1167 -74.9500 126° Southeast 250 288 13,100  Level Montreal Center
09:32AM 46.0833 -74.8833 126° Southeast 250 288 13,100  Level Montreal Center
09:33AM 46.0500 -74.7833 116° Southeast 250 288 13,100  Level Montreal Center
09:34AM 46.0167 -74.7167 126° Southeast 250 288 13,100  Level Montreal Center
09:35AM 45.9833 -74.6167 116° Southeast 250 288 13,100  Level Montreal Center
09:36AM 45.9500 -74.5167 116° Southeast 250 288 13,100 -60 Level Montreal Center
09:37AM 45.9167 -74.4500 126° Southeast 250 288 13,000 -480 Descending Montreal Center
09:38AM 45.8833 -74.3500 116° Southeast 260 299 12,200 -900 Descending Montreal Center
09:39AM 45.8333 -74.2667 131° Southeast 260 299 11,200 -900 Descending Montreal Center
09:40AM 45.8000 -74.1833 120° Southeast 230 265 10,400 -900 Descending Montreal Center
09:41AM 45.7500 -74.1500 155° Southeast 230 265 9,400 -1,020 Descending Montreal Center
09:42AM 45.7167 -74.0500 115° Southeast 230 265 8,400 -1,200 Descending Montreal Center
09:43AM 45.6667 -73.9833 137° Southeast 240 276 7,000 -1,380 Descending Montreal Center
09:44AM 45.6500 -73.8833 103° East 230 265 5,700 -1,680 Descending Montreal Center
09:45AM 45.6167 -73.8167 126° Southeast 230 265 3,700 -1,800 Descending Montreal Center
09:46AM 45.6167 -73.7167 90° East 220 253 2,100 -900 Descending Montreal Center
09:47AM 45.6167 -73.6500 90° East 200 230 2,000 -60 Descending Montreal Center
09:48AM 45.5667 -73.6000 145° Southeast 200 230 2,000  Level Montreal Center
09:49AM 45.5167 -73.6167 193° South 170 196 2,100 -600 Climbing Montreal Center
09:50AM 45.4833 -73.6667 226° Southwest 160 184 800 -900 Descending Montreal Center
09:51AM 45.4667 -73.7000 235° Southwest 100 115 300 -540 Descending Montreal Center
09:53AM 45.5532 -73.8270 199° South  Level Estimated
10:00AM 45.4667 -73.7333 65° Northeast  Level FlightAware Approximate
10:01AM 45.5132 -73.8010 65° Northeast  Level Estimated
10:02AM 45.4667 -73.7333 65° Northeast  Level FlightAware Approximate
10:03AM 45.5132 -73.8010 65° Northeast  Level Estimated
10:04AM 45.4667 -73.7333 65° Northeast  Level FlightAware Approximate
10:05AM 45.5132 -73.8010 65° Northeast  Level Estimated
10:06AM 45.4667 -73.7333 65° Northeast  Level FlightAware Approximate
10:07AM 45.5132 -73.8010 65° Northeast  Level Estimated
10:08AM 45.4667 -73.7333 65° Northeast  Level FlightAware Approximate
10:09AM 45.5132 -73.8010 65° Northeast  Level Estimated
10:10AM 45.4667 -73.7333 65° Northeast  Level FlightAware Approximate
10:11AM 45.5132 -73.8010 65° Northeast  Level Estimated
10:12AM 45.4667 -73.7333 65° Northeast  Level FlightAware Approximate